Time;durP1;ratioP1;P1;durP2;ratioP2;P2;SDS_P1;SDS_P2;PMS_P1;PMS_P2;Temp;Humidity;BMP_temperature;BMP_pressure;BME280_temperature;BME280_humidity;BME280_pressure;Samples;Min_cycle;Max_cycle;Signal;HPM_P1;HPM_P2
2023/09/23 00:02:56;;;;;;;54.67;27.17;;;;;;;;;;6290916;28;20041;-62
2023/09/23 00:05:57;;;;;;;44.45;22.55;;;;;;;;;;6291198;28;20072;-63
2023/09/23 00:08:57;;;;;;;32.23;17.87;;;;;;;;;;6285216;28;21167;-63
2023/09/23 00:11:59;;;;;;;29.53;16.37;;;;;;;;;;6288428;28;20061;-63
2023/09/23 00:15:00;;;;;;;29.17;14.93;;;;;;;;;;6291814;28;20142;-63
2023/09/23 00:18:02;;;;;;;39.97;19.90;;;;;;;;;;6283250;28;20446;-63
2023/09/23 00:21:05;;;;;;;45.20;21.80;;;;;;;;;;6286712;28;20074;-63
2023/09/23 00:24:08;;;;;;;46.90;21.45;;;;;;;;;;6277919;28;20036;-63
2023/09/23 00:27:09;;;;;;;42.35;21.40;;;;;;;;;;6288528;28;20048;-65
2023/09/23 00:30:12;;;;;;;38.63;18.08;;;;;;;;;;6290352;28;20037;-63
2023/09/23 00:33:16;;;;;;;36.70;17.90;;;;;;;;;;6289420;28;20041;-63
2023/09/23 00:36:18;;;;;;;32.35;16.17;;;;;;;;;;6290989;28;20046;-63
2023/09/23 00:39:19;;;;;;;31.65;15.73;;;;;;;;;;6291612;28;20036;-63
2023/09/23 00:42:21;;;;;;;28.27;14.10;;;;;;;;;;6288917;28;20560;-63
2023/09/23 00:45:24;;;;;;;24.48;12.20;;;;;;;;;;6289091;28;20456;-64
2023/09/23 00:48:25;;;;;;;20.70;11.50;;;;;;;;;;6291866;28;20040;-64
2023/09/23 00:51:28;;;;;;;18.08;10.32;;;;;;;;;;6289734;28;20071;-63
2023/09/23 00:54:31;;;;;;;22.65;11.75;;;;;;;;;;6290178;28;21352;-63
2023/09/23 00:57:31;;;;;;;26.58;12.85;;;;;;;;;;6290586;28;20137;-62
2023/09/23 01:00:35;;;;;;;27.35;14.35;;;;;;;;;;6289393;28;20523;-63
2023/09/23 01:03:38;;;;;;;30.38;15.07;;;;;;;;;;6291872;28;20461;-62
2023/09/23 01:06:38;;;;;;;31.77;15.70;;;;;;;;;;6289458;28;20051;-68
2023/09/23 01:09:39;;;;;;;31.98;16.33;;;;;;;;;;6290341;28;20491;-62
2023/09/23 01:12:40;;;;;;;33.47;17.20;;;;;;;;;;6287512;28;20052;-62
2023/09/23 01:15:41;;;;;;;39.65;18.25;;;;;;;;;;6296928;28;20505;-63
2023/09/23 01:18:45;;;;;;;36.50;18.43;;;;;;;;;;6288779;28;20044;-64
2023/09/23 01:21:49;;;;;;;36.60;16.45;;;;;;;;;;6289736;28;20510;-64
2023/09/23 01:24:50;;;;;;;30.92;16.42;;;;;;;;;;6289759;28;20067;-62
2023/09/23 01:27:51;;;;;;;27.58;13.50;;;;;;;;;;6291011;28;20597;-63
2023/09/23 01:30:51;;;;;;;26.40;13.50;;;;;;;;;;6290468;28;20115;-62
2023/09/23 01:33:52;;;;;;;26.45;13.13;;;;;;;;;;6288204;28;20036;-63
2023/09/23 01:36:53;;;;;;;28.67;13.60;;;;;;;;;;6292395;28;20139;-62
2023/09/23 01:39:54;;;;;;;24.35;12.80;;;;;;;;;;6289524;28;20081;-63
2023/09/23 01:42:55;;;;;;;25.30;12.82;;;;;;;;;;6289225;28;20040;-63
2023/09/23 01:46:02;;;;;;;25.23;13.35;;;;;;;;;;6290967;28;20044;-63
2023/09/23 01:49:03;;;;;;;23.05;12.75;;;;;;;;;;6288553;28;20045;-64
2023/09/23 01:52:03;;;;;;;29.65;13.63;;;;;;;;;;6271277;28;20048;-64
2023/09/23 01:55:04;;;;;;;25.60;13.60;;;;;;;;;;6286907;28;20062;-63
2023/09/23 01:58:05;;;;;;;24.58;13.50;;;;;;;;;;6290733;28;20045;-63
2023/09/23 02:01:05;;;;;;;28.90;15.43;;;;;;;;;;6292095;28;20076;-62
2023/09/23 02:04:08;;;;;;;29.98;15.45;;;;;;;;;;6290820;28;20044;-63
2023/09/23 02:07:10;;;;;;;29.50;15.05;;;;;;;;;;6290760;28;20052;-64
2023/09/23 02:10:14;;;;;;;29.10;13.70;;;;;;;;;;6289170;28;20044;-63
2023/09/23 02:13:15;;;;;;;28.65;14.57;;;;;;;;;;6288513;28;20055;-63
2023/09/23 02:16:18;;;;;;;27.08;14.43;;;;;;;;;;6288817;28;20048;-63
2023/09/23 02:19:19;;;;;;;29.15;14.45;;;;;;;;;;6289168;28;20052;-64
2023/09/23 02:22:20;;;;;;;30.33;15.68;;;;;;;;;;6288067;28;20041;-63
2023/09/23 02:25:25;;;;;;;30.08;15.50;;;;;;;;;;6285736;28;20529;-65
2023/09/23 02:28:25;;;;;;;37.33;18.77;;;;;;;;;;6288962;28;20049;-62
2023/09/23 02:31:26;;;;;;;37.78;18.00;;;;;;;;;;6289206;28;20045;-61
2023/09/23 02:34:26;;;;;;;38.70;17.80;;;;;;;;;;6288175;28;20044;-62
2023/09/23 02:37:27;;;;;;;36.17;17.83;;;;;;;;;;6288152;28;20041;-63
2023/09/23 02:40:28;;;;;;;33.20;17.00;;;;;;;;;;6288167;28;20395;-63
2023/09/23 02:43:28;;;;;;;31.42;15.45;;;;;;;;;;6288868;28;20044;-62
2023/09/23 02:46:30;;;;;;;30.35;15.27;;;;;;;;;;6287737;28;20079;-64
2023/09/23 02:49:32;;;;;;;32.97;16.48;;;;;;;;;;6288270;28;20041;-63
2023/09/23 02:52:33;;;;;;;;;;;;;;;;;;6288644;28;20040;-62
2023/09/23 02:55:33;;;;;;;30.92;16.00;;;;;;;;;;6287343;28;20283;-62
2023/09/23 02:58:34;;;;;;;31.65;16.75;;;;;;;;;;6288149;28;20036;-62
2023/09/23 03:01:35;;;;;;;33.13;16.30;;;;;;;;;;6288610;28;20058;-62
2023/09/23 03:04:35;;;;;;;27.13;14.48;;;;;;;;;;6287219;28;20517;-61
2023/09/23 03:07:39;;;;;;;31.58;16.75;;;;;;;;;;6288228;28;20058;-62
2023/09/23 03:10:41;;;;;;;29.42;14.68;;;;;;;;;;6263511;28;20049;-64
2023/09/23 03:13:42;;;;;;;;;;;;;;;;;;6288101;28;20600;-62
2023/09/23 03:16:48;;;;;;;24.23;12.73;;;;;;;;;;6286629;28;19924;-62
2023/09/23 03:19:52;;;;;;;27.02;12.50;;;;;;;;;;6287870;28;20051;-62
2023/09/23 03:22:53;;;;;;;24.48;11.90;;;;;;;;;;6288251;28;20028;-64
2023/09/23 03:25:56;;;;;;;23.45;11.60;;;;;;;;;;6287228;28;20045;-62
2023/09/23 03:28:57;;;;;;;23.67;10.98;;;;;;;;;;6288552;28;20499;-62
2023/09/23 03:31:59;;;;;;;20.58;10.00;;;;;;;;;;6287882;28;20110;-63
2023/09/23 03:34:59;;;;;;;21.98;10.60;;;;;;;;;;6286440;28;20048;-61
2023/09/23 03:38:00;;;;;;;20.97;10.03;;;;;;;;;;6287355;28;20499;-62
2023/09/23 03:41:02;;;;;;;22.88;10.27;;;;;;;;;;6286839;28;20044;-62
2023/09/23 03:44:07;;;;;;;24.35;10.35;;;;;;;;;;6287203;28;20040;-62
2023/09/23 03:47:07;;;;;;;24.55;10.45;;;;;;;;;;6285005;28;20384;-64
2023/09/23 03:50:08;;;;;;;20.40;9.13;;;;;;;;;;6287555;28;20049;-63
2023/09/23 03:53:12;;;;;;;22.85;9.85;;;;;;;;;;6287640;28;20051;-63
2023/09/23 03:56:13;;;;;;;19.40;9.88;;;;;;;;;;6286384;28;20047;-64
2023/09/23 03:59:13;;;;;;;19.42;8.88;;;;;;;;;;6287210;28;20982;-63
2023/09/23 04:02:14;;;;;;;15.43;7.80;;;;;;;;;;6287361;28;20106;-64
2023/09/23 04:05:15;;;;;;;17.25;8.52;;;;;;;;;;6285545;28;20063;-64
2023/09/23 04:08:15;;;;;;;21.50;8.83;;;;;;;;;;6285824;28;20090;-63
2023/09/23 04:11:16;;;;;;;21.90;8.60;;;;;;;;;;6286918;28;20060;-63
2023/09/23 04:14:18;;;;;;;19.43;9.00;;;;;;;;;;6286783;28;20485;-64
2023/09/23 04:17:19;;;;;;;18.58;8.93;;;;;;;;;;6285638;28;20045;-63
2023/09/23 04:20:20;;;;;;;17.87;9.30;;;;;;;;;;6287818;28;20564;-63
2023/09/23 04:23:20;;;;;;;23.08;10.15;;;;;;;;;;6288212;28;20048;-63
2023/09/23 04:26:21;;;;;;;22.83;10.13;;;;;;;;;;6285351;28;20102;-65
2023/09/23 04:29:22;;;;;;;23.33;10.13;;;;;;;;;;6288533;28;20044;-63
2023/09/23 04:32:24;;;;;;;19.85;9.73;;;;;;;;;;6285511;28;20048;-64
2023/09/23 04:35:25;;;;;;;21.63;9.82;;;;;;;;;;6286763;28;20475;-64
2023/09/23 04:38:25;;;;;;;21.85;10.02;;;;;;;;;;6286571;28;20086;-63
2023/09/23 04:41:26;;;;;;;19.98;9.75;;;;;;;;;;6284730;28;20041;-63
2023/09/23 04:44:27;;;;;;;20.15;9.30;;;;;;;;;;6285345;28;20148;-64
2023/09/23 04:47:27;;;;;;;19.27;9.43;;;;;;;;;;6289413;28;20498;-65
2023/09/23 04:50:28;;;;;;;22.40;10.27;;;;;;;;;;6290868;28;20062;-64
2023/09/23 04:53:29;;;;;;;23.45;10.30;;;;;;;;;;6289843;28;20033;-64
2023/09/23 04:56:29;;;;;;;26.67;11.25;;;;;;;;;;6289631;28;20053;-64
2023/09/23 04:59:32;;;;;;;29.33;12.27;;;;;;;;;;6290811;28;20043;-61
2023/09/23 05:02:33;;;;;;;28.88;11.40;;;;;;;;;;6290613;28;20061;-63
2023/09/23 05:05:34;;;;;;;26.80;11.63;;;;;;;;;;6290796;28;20044;-64
2023/09/23 05:08:35;;;;;;;30.42;12.57;;;;;;;;;;6288847;28;20051;-62
2023/09/23 05:11:35;;;;;;;31.92;12.88;;;;;;;;;;6289791;28;20058;-63
2023/09/23 05:14:36;;;;;;;28.27;11.50;;;;;;;;;;6289900;28;20044;-63
2023/09/23 05:17:37;;;;;;;32.15;13.60;;;;;;;;;;6289079;28;20045;-63
2023/09/23 05:20:40;;;;;;;29.95;12.05;;;;;;;;;;6291552;28;20045;-64
2023/09/23 05:23:41;;;;;;;29.85;13.18;;;;;;;;;;6290474;28;20043;-65
2023/09/23 05:26:43;;;;;;;31.15;13.02;;;;;;;;;;6286513;28;20045;-64
2023/09/23 05:29:45;;;;;;;30.67;12.80;;;;;;;;;;6290596;28;20045;-63
2023/09/23 05:32:46;;;;;;;27.48;11.35;;;;;;;;;;6288864;28;20552;-63
2023/09/23 05:35:46;;;;;;;30.95;13.02;;;;;;;;;;6288439;28;20037;-63
2023/09/23 05:38:47;;;;;;;27.02;10.93;;;;;;;;;;6289659;28;20062;-64
2023/09/23 05:41:49;;;;;;;28.55;12.60;;;;;;;;;;6289707;28;20044;-64
2023/09/23 05:44:50;;;;;;;;;;;;;;;;;;6290066;28;20040;-63
2023/09/23 05:47:51;;;;;;;25.80;11.10;;;;;;;;;;6286682;28;19946;-63
2023/09/23 05:51:01;;;;;;;;;;;;;;;;;;6289260;28;20474;-62
2023/09/23 05:54:02;;;;;;;30.83;12.52;;;;;;;;;;6275201;28;19924;-63
2023/09/23 05:57:03;;;;;;;35.28;13.57;;;;;;;;;;6284945;28;20407;-63
2023/09/23 06:00:05;;;;;;;32.70;12.70;;;;;;;;;;6288206;28;20045;-62
2023/09/23 06:03:06;;;;;;;36.15;13.05;;;;;;;;;;6287949;28;20143;-63
2023/09/23 06:06:06;;;;;;;40.28;14.95;;;;;;;;;;6287113;28;20399;-64
2023/09/23 06:09:07;;;;;;;32.25;12.38;;;;;;;;;;6288356;28;20036;-63
2023/09/23 06:12:08;;;;;;;35.80;14.50;;;;;;;;;;6287659;28;20048;-63
2023/09/23 06:15:10;;;;;;;38.45;14.55;;;;;;;;;;6289279;28;20091;-63
2023/09/23 06:18:12;;;;;;;41.05;15.40;;;;;;;;;;6288151;28;20032;-63
2023/09/23 06:21:13;;;;;;;;;;;;;;;;;;6289473;28;20610;-63
2023/09/23 06:24:13;;;;;;;29.80;12.75;;;;;;;;;;6291033;28;19920;-62
2023/09/23 06:27:14;;;;;;;28.45;12.30;;;;;;;;;;6286166;28;20044;-63
2023/09/23 06:30:15;;;;;;;30.20;13.02;;;;;;;;;;6286635;28;20059;-64
2023/09/23 06:33:16;;;;;;;31.37;12.93;;;;;;;;;;6289458;28;20098;-65
2023/09/23 06:36:16;;;;;;;23.90;10.48;;;;;;;;;;6286742;28;20062;-63
2023/09/23 06:39:17;;;;;;;26.45;10.45;;;;;;;;;;6288207;28;20071;-63
2023/09/23 06:42:18;;;;;;;23.70;9.63;;;;;;;;;;6289678;28;20053;-63
2023/09/23 06:45:19;;;;;;;19.15;9.32;;;;;;;;;;6287433;28;20060;-63
2023/09/23 06:48:19;;;;;;;19.95;8.82;;;;;;;;;;6287767;28;20487;-62
2023/09/23 06:51:20;;;;;;;17.92;8.35;;;;;;;;;;6287546;28;20060;-63
2023/09/23 06:54:21;;;;;;;16.70;7.05;;;;;;;;;;6288249;28;20066;-63
2023/09/23 06:57:22;;;;;;;15.50;6.60;;;;;;;;;;6286983;28;20105;-63
2023/09/23 07:00:22;;;;;;;16.47;7.40;;;;;;;;;;6288468;28;20040;-62
2023/09/23 07:03:23;;;;;;;14.48;7.40;;;;;;;;;;6297128;28;20043;-63
2023/09/23 07:06:23;;;;;;;13.32;6.57;;;;;;;;;;6287085;28;20060;-62
2023/09/23 07:09:24;;;;;;;13.50;6.82;;;;;;;;;;6285137;28;20191;-63
2023/09/23 07:12:24;;;;;;;14.93;6.93;;;;;;;;;;6287514;28;20052;-63
2023/09/23 07:15:25;;;;;;;15.13;6.60;;;;;;;;;;6269328;28;20226;-63
2023/09/23 07:18:26;;;;;;;16.13;7.53;;;;;;;;;;6286612;28;20133;-63
2023/09/23 07:21:27;;;;;;;17.17;8.40;;;;;;;;;;6285620;28;20048;-62
2023/09/23 07:24:29;;;;;;;22.27;8.85;;;;;;;;;;6287353;28;20044;-63
2023/09/23 07:27:30;;;;;;;19.10;8.18;;;;;;;;;;6284871;28;20133;-62
2023/09/23 07:30:33;;;;;;;18.77;8.10;;;;;;;;;;6287179;28;20045;-63
2023/09/23 07:33:34;;;;;;;21.10;9.05;;;;;;;;;;6288193;28;20045;-62
2023/09/23 07:36:34;;;;;;;20.48;9.38;;;;;;;;;;6285954;28;20044;-64
2023/09/23 07:39:35;;;;;;;22.23;8.52;;;;;;;;;;6286581;28;20067;-64
2023/09/23 07:42:35;;;;;;;18.88;8.60;;;;;;;;;;6283422;28;20423;-65
2023/09/23 07:45:36;;;;;;;20.80;9.57;;;;;;;;;;6285351;28;20194;-65
2023/09/23 07:48:36;;;;;;;21.45;9.05;;;;;;;;;;6287131;28;20411;-68
2023/09/23 07:51:37;;;;;;;19.70;8.95;;;;;;;;;;6287592;28;20082;-63
2023/09/23 07:54:40;;;;;;;18.83;9.05;;;;;;;;;;6286953;28;20037;-64
2023/09/23 07:57:43;;;;;;;21.00;9.68;;;;;;;;;;6287740;28;20068;-64
2023/09/23 08:00:44;;;;;;;22.35;10.10;;;;;;;;;;6285219;28;20052;-63
2023/09/23 08:03:45;;;;;;;26.70;11.05;;;;;;;;;;6269846;28;20041;-63
2023/09/23 08:06:45;;;;;;;26.48;11.55;;;;;;;;;;6286730;28;20118;-64
2023/09/23 08:09:46;;;;;;;28.80;11.93;;;;;;;;;;6286536;28;20043;-64
2023/09/23 08:12:47;;;;;;;26.48;11.70;;;;;;;;;;6283508;28;20040;-64
2023/09/23 08:15:48;;;;;;;25.37;11.47;;;;;;;;;;6285730;28;20106;-63
2023/09/23 08:18:49;;;;;;;27.17;12.00;;;;;;;;;;6283219;28;20093;-66
2023/09/23 08:21:49;;;;;;;27.80;12.10;;;;;;;;;;6289856;28;20055;-63
2023/09/23 08:24:50;;;;;;;27.13;11.88;;;;;;;;;;6290942;28;20055;-63
2023/09/23 08:27:53;;;;;;;27.00;11.80;;;;;;;;;;6290885;28;20537;-64
2023/09/23 08:30:54;;;;;;;22.25;10.38;;;;;;;;;;6289675;28;20091;-64
2023/09/23 08:33:55;;;;;;;24.88;10.82;;;;;;;;;;6291891;28;20419;-66
2023/09/23 08:36:56;;;;;;;23.83;10.38;;;;;;;;;;6289854;28;20409;-64
2023/09/23 08:39:57;;;;;;;22.75;10.15;;;;;;;;;;6291205;28;20043;-64
2023/09/23 08:43:03;;;;;;;25.08;10.90;;;;;;;;;;6291748;28;20033;-64
2023/09/23 08:46:09;;;;;;;16.38;8.27;;;;;;;;;;6291003;28;20491;-65
2023/09/23 08:49:11;;;;;;;19.25;8.25;;;;;;;;;;6290733;28;20048;-64
2023/09/23 08:52:12;;;;;;;;;;;;;;;;;;6291656;28;20036;-63
2023/09/23 08:55:16;;;;;;;14.90;7.32;;;;;;;;;;6291334;28;19973;-63
2023/09/23 08:58:17;;;;;;;13.00;6.88;;;;;;;;;;6289659;28;20135;-65
2023/09/23 09:01:18;;;;;;;15.75;7.93;;;;;;;;;;6290158;28;20114;-64
2023/09/23 09:04:19;;;;;;;14.00;7.72;;;;;;;;;;6291870;28;20105;-64
2023/09/23 09:07:19;;;;;;;15.33;7.40;;;;;;;;;;6289801;28;20053;-63
2023/09/23 09:10:20;;;;;;;16.85;7.72;;;;;;;;;;6289472;28;20442;-62
2023/09/23 09:13:21;;;;;;;15.67;8.27;;;;;;;;;;6290914;28;20037;-63
2023/09/23 09:16:22;;;;;;;18.48;9.05;;;;;;;;;;6290486;28;20041;-63
2023/09/23 09:19:23;;;;;;;17.25;9.65;;;;;;;;;;6290043;28;20075;-63
2023/09/23 09:22:24;;;;;;;20.50;10.23;;;;;;;;;;6289773;28;20086;-63
2023/09/23 09:25:26;;;;;;;20.60;10.27;;;;;;;;;;6272649;28;20036;-63
2023/09/23 09:28:27;;;;;;;21.25;10.90;;;;;;;;;;6289868;28;20059;-63
2023/09/23 09:31:35;;;;;;;21.13;10.80;;;;;;;;;;6290437;28;20053;-63
2023/09/23 09:34:46;;;;;;;20.50;9.98;;;;;;;;;;6290756;28;20086;-62
2023/09/23 09:37:48;;;;;;;18.53;9.87;;;;;;;;;;6290252;28;20055;-62
2023/09/23 09:40:50;;;;;;;;;;;;;;;;;;6290425;28;20498;-62
2023/09/23 09:43:51;;;;;;;16.73;8.02;;;;;;;;;;6290361;28;19928;-63
2023/09/23 09:46:54;;;;;;;16.80;8.82;;;;;;;;;;6290071;28;20135;-63
2023/09/23 09:49:54;;;;;;;18.60;8.68;;;;;;;;;;6290507;28;20086;-62
2023/09/23 09:52:56;;;;;;;15.02;7.53;;;;;;;;;;6289190;28;20041;-62
2023/09/23 09:55:56;;;;;;;13.80;7.80;;;;;;;;;;6290376;28;20094;-62
2023/09/23 09:59:00;;;;;;;12.90;6.97;;;;;;;;;;6288695;28;20052;-62
2023/09/23 10:02:03;;;;;;;11.65;6.20;;;;;;;;;;6288064;28;20040;-63
2023/09/23 10:05:06;;;;;;;10.38;5.60;;;;;;;;;;6289612;28;20127;-62
2023/09/23 10:08:13;;;;;;;;;;;;;;;;;;6290103;28;20036;-62
2023/09/23 10:11:15;;;;;;;14.23;6.53;;;;;;;;;;6287446;28;19920;-62
2023/09/23 10:14:16;;;;;;;10.80;5.82;;;;;;;;;;6288594;28;20121;-62
2023/09/23 10:17:20;;;;;;;11.35;5.38;;;;;;;;;;6286628;28;20051;-62
2023/09/23 10:20:24;;;;;;;11.85;5.97;;;;;;;;;;6277254;28;20494;-62
2023/09/23 10:23:25;;;;;;;12.70;5.97;;;;;;;;;;6288844;28;20604;-63
2023/09/23 10:26:28;;;;;;;12.40;6.07;;;;;;;;;;6288695;28;20487;-63
2023/09/23 10:29:40;;;;;;;13.20;7.07;;;;;;;;;;6269009;28;20047;-62
2023/09/23 10:32:43;;;;;;;13.60;7.15;;;;;;;;;;6282188;28;20044;-62
2023/09/23 10:35:44;;;;;;;12.30;6.85;;;;;;;;;;6282500;28;20049;-62
2023/09/23 10:38:45;;;;;;;11.52;6.38;;;;;;;;;;6287783;28;20047;-62
2023/09/23 10:41:45;;;;;;;11.23;6.60;;;;;;;;;;6274937;28;20434;-63
2023/09/23 10:44:49;;;;;;;10.20;6.13;;;;;;;;;;6282379;28;20048;-62
2023/09/23 10:47:50;;;;;;;10.52;5.72;;;;;;;;;;6288018;28;20079;-65
2023/09/23 10:50:51;;;;;;;12.07;6.45;;;;;;;;;;6284988;28;21181;-62
2023/09/23 10:53:52;;;;;;;12.68;6.07;;;;;;;;;;6285948;28;20048;-68
2023/09/23 10:56:52;;;;;;;9.63;5.55;;;;;;;;;;6283943;28;20407;-62
2023/09/23 10:59:54;;;;;;;11.60;6.72;;;;;;;;;;6285302;28;20475;-61
2023/09/23 11:02:54;;;;;;;11.55;6.80;;;;;;;;;;6289090;28;20043;-62
2023/09/23 11:05:55;;;;;;;10.18;6.38;;;;;;;;;;6295285;28;20032;-61
2023/09/23 11:08:56;;;;;;;11.77;6.28;;;;;;;;;;6270311;28;20596;-63
2023/09/23 11:12:06;;;;;;;12.27;7.10;;;;;;;;;;6286785;28;20548;-62
2023/09/23 11:15:08;;;;;;;13.93;6.82;;;;;;;;;;6286808;28;20053;-62
2023/09/23 11:18:09;;;;;;;10.02;5.75;;;;;;;;;;6287588;28;20048;-63
2023/09/23 11:21:11;;;;;;;10.43;5.70;;;;;;;;;;6287953;28;20148;-62
2023/09/23 11:24:13;;;;;;;12.57;6.13;;;;;;;;;;6291373;28;20512;-61
2023/09/23 11:27:13;;;;;;;12.23;6.47;;;;;;;;;;6270649;28;20059;-61
2023/09/23 11:30:14;;;;;;;12.38;6.93;;;;;;;;;;6289447;28;20056;-60
2023/09/23 11:33:15;;;;;;;12.95;6.55;;;;;;;;;;6288104;28;20060;-64
2023/09/23 11:36:16;;;;;;;13.40;6.85;;;;;;;;;;6290422;28;20526;-62
2023/09/23 11:39:16;;;;;;;16.50;7.75;;;;;;;;;;6272798;28;20174;-61
2023/09/23 11:42:17;;;;;;;14.57;7.53;;;;;;;;;;6296110;28;20039;-68
2023/09/23 11:45:20;;;;;;;15.80;7.82;;;;;;;;;;6287452;28;20045;-68
2023/09/23 11:48:20;;;;;;;13.18;7.60;;;;;;;;;;6289061;28;20098;-69
2023/09/23 11:51:21;;;;;;;14.48;6.95;;;;;;;;;;6286333;28;20040;-69
2023/09/23 11:54:22;;;;;;;11.88;6.22;;;;;;;;;;6288659;28;20101;-66
2023/09/23 11:57:22;;;;;;;10.85;6.25;;;;;;;;;;6290915;28;20051;-65
2023/09/23 12:00:23;;;;;;;13.43;6.53;;;;;;;;;;6297721;28;20076;-69
2023/09/23 12:03:26;;;;;;;12.43;6.68;;;;;;;;;;6296637;28;20055;-67
2023/09/23 12:06:34;;;;;;;10.77;6.87;;;;;;;;;;6291519;28;20048;-66
2023/09/23 12:09:35;;;;;;;14.10;8.02;;;;;;;;;;6297681;28;20101;-67
2023/09/23 12:12:38;;;;;;;15.80;8.13;;;;;;;;;;6295547;28;20113;-68
2023/09/23 12:15:40;;;;;;;17.35;9.05;;;;;;;;;;6291141;28;20047;-61
2023/09/23 12:18:41;;;;;;;19.90;11.07;;;;;;;;;;6290096;28;20045;-65
2023/09/23 12:21:42;;;;;;;18.58;9.82;;;;;;;;;;6289877;28;20055;-64
2023/09/23 12:24:44;;;;;;;17.85;8.52;;;;;;;;;;6272093;28;20060;-66
2023/09/23 12:27:45;;;;;;;14.80;8.23;;;;;;;;;;6294750;28;20044;-64
2023/09/23 12:30:45;;;;;;;9.60;5.65;;;;;;;;;;6292449;28;20079;-66
2023/09/23 12:33:46;;;;;;;12.20;5.68;;;;;;;;;;6289620;28;20051;-70
2023/09/23 12:36:47;;;;;;;11.52;5.47;;;;;;;;;;6289837;28;20048;-61
2023/09/23 12:39:47;;;;;;;7.68;4.50;;;;;;;;;;6293074;28;20115;-61
2023/09/23 12:42:48;;;;;;;7.63;4.38;;;;;;;;;;6292182;28;20076;-68
2023/09/23 12:45:50;;;;;;;7.05;3.83;;;;;;;;;;6293196;28;20126;-66
2023/09/23 12:48:50;;;;;;;8.48;4.60;;;;;;;;;;6297360;28;20590;-67
2023/09/23 12:51:51;;;;;;;8.00;4.70;;;;;;;;;;6288976;28;20117;-64
2023/09/23 12:54:52;;;;;;;8.65;4.85;;;;;;;;;;6289808;28;20040;-61
2023/09/23 12:57:53;;;;;;;10.68;4.85;;;;;;;;;;6288713;28;20052;-68
2023/09/23 13:00:54;;;;;;;8.07;5.00;;;;;;;;;;6290471;28;20067;-68
2023/09/23 13:03:55;;;;;;;10.02;4.97;;;;;;;;;;6289932;28;20306;-68
2023/09/23 13:06:56;;;;;;;10.95;5.70;;;;;;;;;;6289156;28;20044;-64
2023/09/23 13:09:56;;;;;;;6.90;4.03;;;;;;;;;;6293527;28;20043;-63
2023/09/23 13:12:57;;;;;;;8.10;5.22;;;;;;;;;;6296156;28;20054;-69
2023/09/23 13:15:58;;;;;;;9.48;5.32;;;;;;;;;;6294603;28;20044;-67
2023/09/23 13:19:00;;;;;;;9.38;5.05;;;;;;;;;;6297109;28;20049;-68
2023/09/23 13:22:01;;;;;;;;;;;;;;;;;;6295171;28;20102;-69
2023/09/23 13:25:03;;;;;;;9.77;5.25;;;;;;;;;;6295195;28;19924;-66
2023/09/23 13:28:04;;;;;;;10.60;5.50;;;;;;;;;;6292630;28;20155;-70
2023/09/23 13:31:05;;;;;;;12.03;6.20;;;;;;;;;;6290794;28;20075;-62
2023/09/23 13:34:07;;;;;;;12.68;6.78;;;;;;;;;;6290216;28;20347;-69
2023/09/23 13:37:08;;;;;;;11.35;6.32;;;;;;;;;;6291021;28;20047;-61
2023/09/23 13:40:10;;;;;;;13.65;7.60;;;;;;;;;;6294301;28;20044;-66
2023/09/23 13:43:12;;;;;;;11.35;6.63;;;;;;;;;;6290958;28;20055;-72
2023/09/23 13:46:13;;;;;;;14.45;6.90;;;;;;;;;;6290959;28;20466;-65
2023/09/23 13:49:14;;;;;;;11.63;6.90;;;;;;;;;;6293879;28;20052;-68
2023/09/23 13:52:14;;;;;;;13.23;7.18;;;;;;;;;;6288222;28;20045;-66
2023/09/23 13:55:15;;;;;;;15.43;7.80;;;;;;;;;;6293371;28;20057;-68
2023/09/23 13:58:16;;;;;;;13.03;7.20;;;;;;;;;;6287979;28;20878;-68
2023/09/23 14:01:16;;;;;;;13.50;7.78;;;;;;;;;;6284421;28;20470;-69
2023/09/23 14:04:17;;;;;;;16.23;7.88;;;;;;;;;;6284203;28;20048;-70
2023/09/23 14:07:18;;;;;;;13.57;7.33;;;;;;;;;;6289658;28;20063;-69
2023/09/23 14:10:18;;;;;;;17.33;8.03;;;;;;;;;;6288677;28;20056;-64
2023/09/23 14:13:19;;;;;;;14.77;7.97;;;;;;;;;;6285650;28;20056;-67
2023/09/23 14:16:20;;;;;;;15.00;8.13;;;;;;;;;;6262680;28;20056;-68
2023/09/23 14:19:21;;;;;;;14.20;7.80;;;;;;;;;;6286064;28;20054;-69
2023/09/23 14:22:23;;;;;;;14.93;8.52;;;;;;;;;;6286651;28;20495;-66
2023/09/23 14:25:23;;;;;;;15.65;7.78;;;;;;;;;;6289287;28;20048;-68
2023/09/23 14:28:24;;;;;;;17.30;9.10;;;;;;;;;;6286265;28;20048;-67
2023/09/23 14:31:25;;;;;;;17.85;9.57;;;;;;;;;;6287905;28;20055;-70
2023/09/23 14:34:26;;;;;;;17.52;10.07;;;;;;;;;;6288223;28;20044;-71
2023/09/23 14:37:29;;;;;;;15.43;9.18;;;;;;;;;;6283569;28;20216;-69
2023/09/23 14:40:30;;;;;;;18.10;8.88;;;;;;;;;;6286692;28;20498;-72
2023/09/23 14:43:31;;;;;;;19.67;9.43;;;;;;;;;;6287568;28;20058;-72
2023/09/23 14:46:32;;;;;;;16.58;8.52;;;;;;;;;;6284286;28;20650;-71
2023/09/23 14:49:32;;;;;;;20.55;9.38;;;;;;;;;;6280378;28;20123;-73
2023/09/23 14:52:33;;;;;;;15.77;8.30;;;;;;;;;;6268115;28;20105;-70
2023/09/23 14:55:34;;;;;;;16.13;8.95;;;;;;;;;;6275261;28;20536;-72
2023/09/23 14:58:34;;;;;;;16.02;8.43;;;;;;;;;;6273394;28;20422;-65
2023/09/23 15:01:35;;;;;;;19.60;8.60;;;;;;;;;;6267517;28;21072;-73
2023/09/23 15:04:36;;;;;;;19.17;8.90;;;;;;;;;;6268088;28;20146;-70
2023/09/23 15:07:37;;;;;;;18.85;8.48;;;;;;;;;;6270019;28;20132;-70
2023/09/23 15:10:38;;;;;;;16.08;8.50;;;;;;;;;;6244947;28;20087;-63
2023/09/23 15:13:39;;;;;;;17.20;9.00;;;;;;;;;;6268969;28;21102;-71
2023/09/23 15:16:40;;;;;;;16.33;9.17;;;;;;;;;;6250066;28;20079;-70
2023/09/23 15:19:41;;;;;;;18.73;8.57;;;;;;;;;;6273368;28;20048;-65
2023/09/23 15:22:41;;;;;;;18.15;8.45;;;;;;;;;;6244791;28;20056;-71
2023/09/23 15:25:42;;;;;;;15.60;8.20;;;;;;;;;;6277170;28;20057;-69
2023/09/23 15:28:43;;;;;;;16.87;8.77;;;;;;;;;;6269760;28;20489;-71
2023/09/23 15:31:43;;;;;;;15.00;8.17;;;;;;;;;;6266287;28;20052;-73
2023/09/23 15:34:44;;;;;;;18.43;8.37;;;;;;;;;;6266372;28;20053;-62
2023/09/23 15:37:45;;;;;;;15.20;7.95;;;;;;;;;;6268713;28;20037;-62
2023/09/23 15:40:46;;;;;;;15.43;8.20;;;;;;;;;;6267026;28;20185;-61
2023/09/23 15:43:46;;;;;;;14.93;7.57;;;;;;;;;;6267550;28;21094;-60
2023/09/23 15:46:47;;;;;;;14.07;8.27;;;;;;;;;;6273595;28;20115;-66
2023/09/23 15:49:48;;;;;;;14.27;7.90;;;;;;;;;;6254421;28;20513;-68
2023/09/23 15:52:48;;;;;;;14.38;7.32;;;;;;;;;;6250821;28;20057;-70
2023/09/23 15:55:51;;;;;;;12.77;7.43;;;;;;;;;;6273726;28;20036;-71
2023/09/23 15:58:54;;;;;;;13.80;7.45;;;;;;;;;;6273409;28;20041;-69
2023/09/23 16:01:55;;;;;;;16.50;7.95;;;;;;;;;;6273998;28;20072;-65
2023/09/23 16:04:56;;;;;;;17.83;8.07;;;;;;;;;;6272821;28;20044;-67
2023/09/23 16:07:56;;;;;;;15.77;8.52;;;;;;;;;;6274737;28;20108;-67
2023/09/23 16:10:57;;;;;;;16.40;8.90;;;;;;;;;;6272062;28;20057;-67
2023/09/23 16:13:58;;;;;;;20.33;10.07;;;;;;;;;;6275115;28;20052;-70
2023/09/23 16:16:58;;;;;;;18.48;9.73;;;;;;;;;;6276107;28;20045;-69
2023/09/23 16:19:59;;;;;;;15.43;8.85;;;;;;;;;;6273728;28;20442;-67
2023/09/23 16:22:59;;;;;;;19.42;9.65;;;;;;;;;;6259510;28;20041;-67
2023/09/23 16:26:00;;;;;;;21.05;9.77;;;;;;;;;;6270673;28;20177;-68
2023/09/23 16:29:03;;;;;;;17.67;9.43;;;;;;;;;;6269626;28;20052;-72
2023/09/23 16:32:04;;;;;;;16.45;9.27;;;;;;;;;;6266838;28;20415;-70
2023/09/23 16:35:05;;;;;;;18.25;9.38;;;;;;;;;;6270925;28;20043;-67
2023/09/23 16:38:06;;;;;;;18.33;9.35;;;;;;;;;;6267462;28;20688;-64
2023/09/23 16:41:07;;;;;;;20.97;9.03;;;;;;;;;;6267064;28;20052;-74
2023/09/23 16:44:08;;;;;;;14.95;8.32;;;;;;;;;;6277016;28;20037;-64
2023/09/23 16:47:08;;;;;;;20.37;9.07;;;;;;;;;;6271297;28;20056;-64
2023/09/23 16:50:09;;;;;;;18.13;9.50;;;;;;;;;;6272112;28;20130;-65
2023/09/23 16:53:10;;;;;;;18.65;9.80;;;;;;;;;;6275664;28;20070;-73
2023/09/23 16:56:12;;;;;;;18.83;10.25;;;;;;;;;;6272767;28;20188;-73
2023/09/23 16:59:12;;;;;;;18.73;9.90;;;;;;;;;;6273238;28;20047;-71
2023/09/23 17:02:14;;;;;;;19.38;9.90;;;;;;;;;;6273590;28;20053;-73
2023/09/23 17:05:14;;;;;;;18.10;9.90;;;;;;;;;;6270509;28;20075;-74
2023/09/23 17:08:15;;;;;;;18.73;10.07;;;;;;;;;;6271702;28;20115;-73
2023/09/23 17:11:15;;;;;;;16.90;9.50;;;;;;;;;;6271852;28;20040;-72
2023/09/23 17:14:16;;;;;;;19.27;9.93;;;;;;;;;;6259335;28;21053;-76
2023/09/23 17:17:17;;;;;;;20.30;9.50;;;;;;;;;;6273620;28;20491;-68
2023/09/23 17:20:18;;;;;;;18.33;9.90;;;;;;;;;;6254622;28;20053;-71
2023/09/23 17:23:18;;;;;;;16.27;9.73;;;;;;;;;;6269822;28;20045;-72
2023/09/23 17:26:19;;;;;;;17.85;10.40;;;;;;;;;;6273094;28;20552;-75
2023/09/23 17:29:20;;;;;;;18.63;10.20;;;;;;;;;;6271827;28;20044;-69
2023/09/23 17:32:21;;;;;;;17.92;9.95;;;;;;;;;;6269435;28;20488;-71
2023/09/23 17:35:21;;;;;;;19.88;11.57;;;;;;;;;;6274145;28;20041;-74
2023/09/23 17:38:23;;;;;;;21.42;11.05;;;;;;;;;;6278475;28;20041;-78
2023/09/23 17:41:24;;;;;;;17.67;9.90;;;;;;;;;;6273157;28;20061;-72
2023/09/23 17:44:25;;;;;;;17.00;9.60;;;;;;;;;;6267171;28;20049;-64
2023/09/23 17:47:25;;;;;;;20.05;9.80;;;;;;;;;;6278511;28;20514;-68
2023/09/23 17:50:26;;;;;;;17.73;9.53;;;;;;;;;;6271508;28;20051;-68